sensor_id;sensor_type;location;lat;lon;timestamp;P1;durP1;ratioP1;P2;durP2;ratioP2
49029;SDS011;43337;52.070;4.508;2024-03-07T00:02:06;47.88;;;20.05;;
49029;SDS011;43337;52.070;4.508;2024-03-07T00:04:32;54.70;;;20.60;;
49029;SDS011;43337;52.070;4.508;2024-03-07T00:06:57;56.45;;;22.60;;
49029;SDS011;43337;52.070;4.508;2024-03-07T00:09:23;59.65;;;20.38;;
49029;SDS011;43337;52.070;4.508;2024-03-07T00:11:49;53.88;;;20.42;;
49029;SDS011;43337;52.070;4.508;2024-03-07T00:14:15;54.75;;;20.88;;
49029;SDS011;43337;52.070;4.508;2024-03-07T00:16:42;47.72;;;19.80;;
49029;SDS011;43337;52.070;4.508;2024-03-07T00:19:07;51.00;;;19.90;;
49029;SDS011;43337;52.070;4.508;2024-03-07T00:21:32;52.03;;;21.30;;
49029;SDS011;43337;52.070;4.508;2024-03-07T00:23:58;56.08;;;22.10;;
49029;SDS011;43337;52.070;4.508;2024-03-07T00:26:24;59.72;;;23.83;;
49029;SDS011;43337;52.070;4.508;2024-03-07T00:28:49;54.83;;;22.05;;
49029;SDS011;43337;52.070;4.508;2024-03-07T00:31:16;52.03;;;21.25;;
49029;SDS011;43337;52.070;4.508;2024-03-07T00:33:42;59.28;;;20.80;;
49029;SDS011;43337;52.070;4.508;2024-03-07T00:36:07;56.63;;;20.77;;
49029;SDS011;43337;52.070;4.508;2024-03-07T00:38:33;60.08;;;22.50;;
49029;SDS011;43337;52.070;4.508;2024-03-07T00:41:01;55.35;;;20.48;;
49029;SDS011;43337;52.070;4.508;2024-03-07T00:43:26;48.65;;;20.23;;
49029;SDS011;43337;52.070;4.508;2024-03-07T00:45:52;50.78;;;21.23;;
49029;SDS011;43337;52.070;4.508;2024-03-07T00:48:17;55.47;;;21.20;;
49029;SDS011;43337;52.070;4.508;2024-03-07T00:50:43;61.50;;;21.73;;
49029;SDS011;43337;52.070;4.508;2024-03-07T00:53:09;58.33;;;21.52;;
49029;SDS011;43337;52.070;4.508;2024-03-07T00:55:35;56.83;;;21.63;;
49029;SDS011;43337;52.070;4.508;2024-03-07T00:58:00;58.42;;;22.55;;
49029;SDS011;43337;52.070;4.508;2024-03-07T01:00:25;54.83;;;22.13;;
49029;SDS011;43337;52.070;4.508;2024-03-07T01:02:53;55.88;;;21.98;;
49029;SDS011;43337;52.070;4.508;2024-03-07T01:05:19;57.40;;;21.90;;
49029;SDS011;43337;52.070;4.508;2024-03-07T01:07:44;57.75;;;21.48;;
49029;SDS011;43337;52.070;4.508;2024-03-07T01:10:14;57.00;;;21.73;;
49029;SDS011;43337;52.070;4.508;2024-03-07T01:12:40;55.70;;;22.17;;
49029;SDS011;43337;52.070;4.508;2024-03-07T01:15:08;57.75;;;22.10;;
49029;SDS011;43337;52.070;4.508;2024-03-07T01:17:35;63.53;;;22.27;;
49029;SDS011;43337;52.070;4.508;2024-03-07T01:20:00;59.47;;;21.60;;
49029;SDS011;43337;52.070;4.508;2024-03-07T01:22:28;56.85;;;21.67;;
49029;SDS011;43337;52.070;4.508;2024-03-07T01:24:53;60.42;;;23.45;;
49029;SDS011;43337;52.070;4.508;2024-03-07T01:27:18;55.95;;;21.85;;
49029;SDS011;43337;52.070;4.508;2024-03-07T01:29:44;61.97;;;23.30;;
49029;SDS011;43337;52.070;4.508;2024-03-07T01:32:09;54.22;;;21.73;;
49029;SDS011;43337;52.070;4.508;2024-03-07T01:34:35;55.38;;;20.90;;
49029;SDS011;43337;52.070;4.508;2024-03-07T01:37:01;51.83;;;21.63;;
49029;SDS011;43337;52.070;4.508;2024-03-07T01:39:26;61.28;;;22.63;;
49029;SDS011;43337;52.070;4.508;2024-03-07T01:41:52;62.78;;;21.73;;
49029;SDS011;43337;52.070;4.508;2024-03-07T01:44:18;53.05;;;22.67;;
49029;SDS011;43337;52.070;4.508;2024-03-07T01:46:43;56.55;;;20.50;;
49029;SDS011;43337;52.070;4.508;2024-03-07T01:49:10;53.22;;;20.60;;
49029;SDS011;43337;52.070;4.508;2024-03-07T01:51:36;56.92;;;21.98;;
49029;SDS011;43337;52.070;4.508;2024-03-07T01:54:03;59.80;;;21.70;;
49029;SDS011;43337;52.070;4.508;2024-03-07T01:56:28;53.17;;;21.13;;
49029;SDS011;43337;52.070;4.508;2024-03-07T01:58:54;59.22;;;22.98;;
49029;SDS011;43337;52.070;4.508;2024-03-07T02:01:21;53.03;;;20.40;;
49029;SDS011;43337;52.070;4.508;2024-03-07T02:03:47;56.28;;;20.38;;
49029;SDS011;43337;52.070;4.508;2024-03-07T02:06:13;55.58;;;21.27;;
49029;SDS011;43337;52.070;4.508;2024-03-07T02:08:39;58.10;;;22.10;;
49029;SDS011;43337;52.070;4.508;2024-03-07T02:11:04;53.88;;;21.42;;
49029;SDS011;43337;52.070;4.508;2024-03-07T02:13:30;55.28;;;19.50;;
49029;SDS011;43337;52.070;4.508;2024-03-07T02:15:58;55.83;;;21.67;;
49029;SDS011;43337;52.070;4.508;2024-03-07T02:18:23;58.55;;;21.90;;
49029;SDS011;43337;52.070;4.508;2024-03-07T02:20:49;56.40;;;21.10;;
49029;SDS011;43337;52.070;4.508;2024-03-07T02:23:15;53.28;;;19.90;;
49029;SDS011;43337;52.070;4.508;2024-03-07T02:25:40;56.03;;;22.80;;
49029;SDS011;43337;52.070;4.508;2024-03-07T02:28:06;64.38;;;22.42;;
49029;SDS011;43337;52.070;4.508;2024-03-07T02:30:32;52.60;;;20.25;;
49029;SDS011;43337;52.070;4.508;2024-03-07T02:32:58;57.95;;;21.98;;
49029;SDS011;43337;52.070;4.508;2024-03-07T02:35:31;56.17;;;21.08;;
49029;SDS011;43337;52.070;4.508;2024-03-07T02:37:58;59.25;;;20.65;;
49029;SDS011;43337;52.070;4.508;2024-03-07T02:40:23;63.40;;;23.85;;
49029;SDS011;43337;52.070;4.508;2024-03-07T02:42:49;51.88;;;21.17;;
49029;SDS011;43337;52.070;4.508;2024-03-07T02:45:14;60.63;;;21.98;;
49029;SDS011;43337;52.070;4.508;2024-03-07T02:47:40;62.05;;;21.77;;
49029;SDS011;43337;52.070;4.508;2024-03-07T02:50:07;56.35;;;22.10;;
49029;SDS011;43337;52.070;4.508;2024-03-07T02:52:34;59.30;;;22.48;;
49029;SDS011;43337;52.070;4.508;2024-03-07T02:54:59;62.90;;;21.75;;
49029;SDS011;43337;52.070;4.508;2024-03-07T02:57:25;57.40;;;21.23;;
49029;SDS011;43337;52.070;4.508;2024-03-07T02:59:50;55.47;;;21.50;;
49029;SDS011;43337;52.070;4.508;2024-03-07T03:02:16;57.80;;;22.30;;
49029;SDS011;43337;52.070;4.508;2024-03-07T03:04:41;66.07;;;23.90;;
49029;SDS011;43337;52.070;4.508;2024-03-07T03:07:06;52.30;;;21.67;;
49029;SDS011;43337;52.070;4.508;2024-03-07T03:09:32;56.92;;;22.05;;
49029;SDS011;43337;52.070;4.508;2024-03-07T03:11:58;54.85;;;22.55;;
49029;SDS011;43337;52.070;4.508;2024-03-07T03:14:25;54.90;;;21.25;;
49029;SDS011;43337;52.070;4.508;2024-03-07T03:16:51;58.85;;;21.20;;
49029;SDS011;43337;52.070;4.508;2024-03-07T03:19:16;64.60;;;23.67;;
49029;SDS011;43337;52.070;4.508;2024-03-07T03:21:41;60.13;;;22.27;;
49029;SDS011;43337;52.070;4.508;2024-03-07T03:24:07;59.50;;;22.20;;
49029;SDS011;43337;52.070;4.508;2024-03-07T03:26:33;62.55;;;23.80;;
49029;SDS011;43337;52.070;4.508;2024-03-07T03:28:58;61.70;;;22.50;;
49029;SDS011;43337;52.070;4.508;2024-03-07T03:31:24;64.80;;;23.05;;
49029;SDS011;43337;52.070;4.508;2024-03-07T03:33:50;65.60;;;23.48;;
49029;SDS011;43337;52.070;4.508;2024-03-07T03:36:16;67.80;;;25.98;;
49029;SDS011;43337;52.070;4.508;2024-03-07T03:38:41;61.47;;;21.90;;
49029;SDS011;43337;52.070;4.508;2024-03-07T03:41:07;62.22;;;23.40;;
49029;SDS011;43337;52.070;4.508;2024-03-07T03:43:32;62.58;;;22.23;;
49029;SDS011;43337;52.070;4.508;2024-03-07T03:45:58;65.47;;;22.90;;
49029;SDS011;43337;52.070;4.508;2024-03-07T03:48:23;69.60;;;25.52;;
49029;SDS011;43337;52.070;4.508;2024-03-07T03:50:49;68.43;;;22.25;;
49029;SDS011;43337;52.070;4.508;2024-03-07T03:53:14;69.82;;;25.27;;
49029;SDS011;43337;52.070;4.508;2024-03-07T03:55:39;60.40;;;24.15;;
49029;SDS011;43337;52.070;4.508;2024-03-07T03:58:05;64.72;;;24.38;;
49029;SDS011;43337;52.070;4.508;2024-03-07T04:00:34;64.82;;;23.52;;
49029;SDS011;43337;52.070;4.508;2024-03-07T04:02:59;68.85;;;24.63;;
49029;SDS011;43337;52.070;4.508;2024-03-07T04:05:25;72.57;;;25.98;;
49029;SDS011;43337;52.070;4.508;2024-03-07T04:07:50;66.95;;;24.88;;
49029;SDS011;43337;52.070;4.508;2024-03-07T04:10:16;65.53;;;23.45;;
49029;SDS011;43337;52.070;4.508;2024-03-07T04:12:43;71.93;;;25.55;;
49029;SDS011;43337;52.070;4.508;2024-03-07T04:15:11;66.18;;;23.23;;
49029;SDS011;43337;52.070;4.508;2024-03-07T04:17:39;72.20;;;26.45;;
49029;SDS011;43337;52.070;4.508;2024-03-07T04:20:05;70.22;;;25.02;;
49029;SDS011;43337;52.070;4.508;2024-03-07T04:22:32;68.25;;;24.52;;
49029;SDS011;43337;52.070;4.508;2024-03-07T04:24:58;67.28;;;26.25;;
49029;SDS011;43337;52.070;4.508;2024-03-07T04:27:24;72.57;;;25.80;;
49029;SDS011;43337;52.070;4.508;2024-03-07T04:29:51;72.72;;;26.25;;
49029;SDS011;43337;52.070;4.508;2024-03-07T04:32:16;76.10;;;27.17;;
49029;SDS011;43337;52.070;4.508;2024-03-07T04:34:42;73.97;;;25.27;;
49029;SDS011;43337;52.070;4.508;2024-03-07T04:37:08;77.95;;;27.05;;
49029;SDS011;43337;52.070;4.508;2024-03-07T04:39:34;72.15;;;25.45;;
49029;SDS011;43337;52.070;4.508;2024-03-07T04:42:00;71.88;;;24.65;;
49029;SDS011;43337;52.070;4.508;2024-03-07T04:44:30;66.78;;;26.30;;
49029;SDS011;43337;52.070;4.508;2024-03-07T04:46:56;73.25;;;25.35;;
49029;SDS011;43337;52.070;4.508;2024-03-07T04:49:26;79.55;;;26.17;;
49029;SDS011;43337;52.070;4.508;2024-03-07T04:51:52;67.82;;;25.08;;
49029;SDS011;43337;52.070;4.508;2024-03-07T04:54:19;70.22;;;24.90;;
49029;SDS011;43337;52.070;4.508;2024-03-07T04:56:45;69.93;;;25.05;;
49029;SDS011;43337;52.070;4.508;2024-03-07T04:59:11;77.03;;;28.25;;
49029;SDS011;43337;52.070;4.508;2024-03-07T05:01:38;70.13;;;26.88;;
49029;SDS011;43337;52.070;4.508;2024-03-07T05:04:06;70.43;;;24.30;;
49029;SDS011;43337;52.070;4.508;2024-03-07T05:06:32;70.78;;;25.80;;
49029;SDS011;43337;52.070;4.508;2024-03-07T05:09:02;72.13;;;27.52;;
49029;SDS011;43337;52.070;4.508;2024-03-07T05:11:31;64.95;;;25.85;;
49029;SDS011;43337;52.070;4.508;2024-03-07T05:13:57;69.35;;;24.30;;
49029;SDS011;43337;52.070;4.508;2024-03-07T05:16:26;69.40;;;25.00;;
49029;SDS011;43337;52.070;4.508;2024-03-07T05:18:52;71.78;;;24.92;;
49029;SDS011;43337;52.070;4.508;2024-03-07T05:21:18;66.78;;;24.77;;
49029;SDS011;43337;52.070;4.508;2024-03-07T05:24:05;64.55;;;24.95;;
49029;SDS011;43337;52.070;4.508;2024-03-07T05:26:32;67.32;;;25.77;;
49029;SDS011;43337;52.070;4.508;2024-03-07T05:29:06;67.03;;;24.05;;
49029;SDS011;43337;52.070;4.508;2024-03-07T05:31:39;74.20;;;26.02;;
49029;SDS011;43337;52.070;4.508;2024-03-07T05:34:14;68.72;;;25.17;;
49029;SDS011;43337;52.070;4.508;2024-03-07T05:36:40;68.07;;;25.25;;
49029;SDS011;43337;52.070;4.508;2024-03-07T05:39:10;66.68;;;25.67;;
49029;SDS011;43337;52.070;4.508;2024-03-07T05:41:49;73.70;;;24.38;;
49029;SDS011;43337;52.070;4.508;2024-03-07T05:44:14;69.15;;;24.83;;
49029;SDS011;43337;52.070;4.508;2024-03-07T05:46:43;66.32;;;24.35;;
49029;SDS011;43337;52.070;4.508;2024-03-07T05:49:13;66.60;;;24.60;;
49029;SDS011;43337;52.070;4.508;2024-03-07T05:51:39;69.68;;;24.75;;
49029;SDS011;43337;52.070;4.508;2024-03-07T05:54:07;70.25;;;25.48;;
49029;SDS011;43337;52.070;4.508;2024-03-07T05:56:32;66.15;;;24.13;;
49029;SDS011;43337;52.070;4.508;2024-03-07T05:59:01;65.55;;;24.02;;
49029;SDS011;43337;52.070;4.508;2024-03-07T06:01:35;71.80;;;26.63;;
49029;SDS011;43337;52.070;4.508;2024-03-07T06:04:01;62.50;;;23.70;;
49029;SDS011;43337;52.070;4.508;2024-03-07T06:06:28;67.13;;;24.38;;
49029;SDS011;43337;52.070;4.508;2024-03-07T06:08:56;65.75;;;23.95;;
49029;SDS011;43337;52.070;4.508;2024-03-07T06:11:22;73.07;;;24.38;;
49029;SDS011;43337;52.070;4.508;2024-03-07T06:13:48;72.80;;;23.85;;
49029;SDS011;43337;52.070;4.508;2024-03-07T06:16:14;60.90;;;22.65;;
49029;SDS011;43337;52.070;4.508;2024-03-07T06:18:42;67.63;;;25.35;;
49029;SDS011;43337;52.070;4.508;2024-03-07T06:21:07;69.60;;;23.98;;
49029;SDS011;43337;52.070;4.508;2024-03-07T06:23:34;67.97;;;26.23;;
49029;SDS011;43337;52.070;4.508;2024-03-07T06:26:00;62.50;;;23.85;;
49029;SDS011;43337;52.070;4.508;2024-03-07T06:28:26;70.05;;;24.25;;
49029;SDS011;43337;52.070;4.508;2024-03-07T06:30:54;70.57;;;25.20;;
49029;SDS011;43337;52.070;4.508;2024-03-07T06:33:27;68.22;;;24.05;;
49029;SDS011;43337;52.070;4.508;2024-03-07T06:35:53;70.70;;;25.85;;
49029;SDS011;43337;52.070;4.508;2024-03-07T06:38:20;68.63;;;24.60;;
49029;SDS011;43337;52.070;4.508;2024-03-07T06:40:46;64.32;;;24.27;;
49029;SDS011;43337;52.070;4.508;2024-03-07T06:43:11;66.03;;;25.20;;
49029;SDS011;43337;52.070;4.508;2024-03-07T06:45:37;56.42;;;23.65;;
49029;SDS011;43337;52.070;4.508;2024-03-07T06:48:06;63.45;;;25.17;;
49029;SDS011;43337;52.070;4.508;2024-03-07T06:50:35;67.90;;;24.17;;
49029;SDS011;43337;52.070;4.508;2024-03-07T06:53:02;68.10;;;26.30;;
49029;SDS011;43337;52.070;4.508;2024-03-07T06:55:31;68.78;;;25.35;;
49029;SDS011;43337;52.070;4.508;2024-03-07T06:57:58;64.13;;;23.90;;
49029;SDS011;43337;52.070;4.508;2024-03-07T07:00:25;67.85;;;24.30;;
49029;SDS011;43337;52.070;4.508;2024-03-07T07:02:51;64.70;;;24.20;;
49029;SDS011;43337;52.070;4.508;2024-03-07T07:05:20;66.13;;;25.90;;
49029;SDS011;43337;52.070;4.508;2024-03-07T07:07:49;64.50;;;24.85;;
49029;SDS011;43337;52.070;4.508;2024-03-07T07:10:14;71.88;;;25.38;;
49029;SDS011;43337;52.070;4.508;2024-03-07T07:12:44;67.00;;;24.13;;
49029;SDS011;43337;52.070;4.508;2024-03-07T07:15:16;72.35;;;27.02;;
49029;SDS011;43337;52.070;4.508;2024-03-07T07:17:46;62.08;;;23.80;;
49029;SDS011;43337;52.070;4.508;2024-03-07T07:20:13;67.80;;;24.65;;
49029;SDS011;43337;52.070;4.508;2024-03-07T07:22:46;67.68;;;25.58;;
49029;SDS011;43337;52.070;4.508;2024-03-07T07:25:13;74.95;;;27.15;;
49029;SDS011;43337;52.070;4.508;2024-03-07T07:27:40;72.93;;;25.95;;
49029;SDS011;43337;52.070;4.508;2024-03-07T07:30:07;70.75;;;25.98;;
49029;SDS011;43337;52.070;4.508;2024-03-07T07:32:34;66.63;;;24.60;;
49029;SDS011;43337;52.070;4.508;2024-03-07T07:35:00;68.63;;;24.67;;
49029;SDS011;43337;52.070;4.508;2024-03-07T07:37:26;61.20;;;23.83;;
49029;SDS011;43337;52.070;4.508;2024-03-07T07:39:51;69.75;;;25.40;;
49029;SDS011;43337;52.070;4.508;2024-03-07T07:42:17;68.35;;;24.67;;
49029;SDS011;43337;52.070;4.508;2024-03-07T07:44:42;60.60;;;23.52;;
49029;SDS011;43337;52.070;4.508;2024-03-07T07:47:08;66.10;;;25.63;;
49029;SDS011;43337;52.070;4.508;2024-03-07T07:49:35;65.00;;;24.27;;
49029;SDS011;43337;52.070;4.508;2024-03-07T07:52:01;62.97;;;23.65;;
49029;SDS011;43337;52.070;4.508;2024-03-07T07:54:26;64.38;;;25.25;;
49029;SDS011;43337;52.070;4.508;2024-03-07T07:56:52;62.08;;;24.83;;
49029;SDS011;43337;52.070;4.508;2024-03-07T07:59:17;62.30;;;25.15;;
49029;SDS011;43337;52.070;4.508;2024-03-07T08:01:42;52.15;;;22.45;;
49029;SDS011;43337;52.070;4.508;2024-03-07T08:04:08;55.35;;;22.77;;
49029;SDS011;43337;52.070;4.508;2024-03-07T08:06:34;63.35;;;22.55;;
49029;SDS011;43337;52.070;4.508;2024-03-07T08:09:00;61.22;;;24.63;;
49029;SDS011;43337;52.070;4.508;2024-03-07T08:11:25;60.15;;;24.48;;
49029;SDS011;43337;52.070;4.508;2024-03-07T08:13:51;60.83;;;23.20;;
49029;SDS011;43337;52.070;4.508;2024-03-07T08:16:16;61.50;;;23.02;;
49029;SDS011;43337;52.070;4.508;2024-03-07T08:18:43;60.17;;;24.20;;
49029;SDS011;43337;52.070;4.508;2024-03-07T08:21:09;56.63;;;24.05;;
49029;SDS011;43337;52.070;4.508;2024-03-07T08:23:37;55.30;;;22.05;;
49029;SDS011;43337;52.070;4.508;2024-03-07T08:26:03;53.80;;;22.35;;
49029;SDS011;43337;52.070;4.508;2024-03-07T08:28:28;52.63;;;21.27;;
49029;SDS011;43337;52.070;4.508;2024-03-07T08:30:53;52.35;;;22.88;;
49029;SDS011;43337;52.070;4.508;2024-03-07T08:33:19;48.05;;;20.15;;
49029;SDS011;43337;52.070;4.508;2024-03-07T08:35:46;52.15;;;20.65;;
49029;SDS011;43337;52.070;4.508;2024-03-07T08:38:13;47.15;;;20.33;;
49029;SDS011;43337;52.070;4.508;2024-03-07T08:40:38;57.17;;;22.45;;
49029;SDS011;43337;52.070;4.508;2024-03-07T08:43:04;47.10;;;19.30;;
49029;SDS011;43337;52.070;4.508;2024-03-07T08:45:32;49.15;;;20.42;;
49029;SDS011;43337;52.070;4.508;2024-03-07T08:48:00;50.88;;;20.60;;
49029;SDS011;43337;52.070;4.508;2024-03-07T08:50:26;50.08;;;19.77;;
49029;SDS011;43337;52.070;4.508;2024-03-07T08:52:52;45.85;;;20.70;;
49029;SDS011;43337;52.070;4.508;2024-03-07T08:55:20;46.90;;;20.63;;
49029;SDS011;43337;52.070;4.508;2024-03-07T08:57:47;42.10;;;17.30;;
49029;SDS011;43337;52.070;4.508;2024-03-07T09:00:14;46.38;;;19.27;;
49029;SDS011;43337;52.070;4.508;2024-03-07T09:02:47;44.53;;;18.35;;
49029;SDS011;43337;52.070;4.508;2024-03-07T09:05:21;41.05;;;17.27;;
49029;SDS011;43337;52.070;4.508;2024-03-07T09:07:47;39.85;;;16.25;;
49029;SDS011;43337;52.070;4.508;2024-03-07T09:10:13;39.60;;;17.02;;
49029;SDS011;43337;52.070;4.508;2024-03-07T09:12:42;39.45;;;16.65;;
49029;SDS011;43337;52.070;4.508;2024-03-07T09:15:08;38.53;;;16.42;;
49029;SDS011;43337;52.070;4.508;2024-03-07T09:17:37;38.95;;;15.18;;
49029;SDS011;43337;52.070;4.508;2024-03-07T09:20:03;37.63;;;16.70;;
49029;SDS011;43337;52.070;4.508;2024-03-07T09:22:30;41.25;;;17.58;;
49029;SDS011;43337;52.070;4.508;2024-03-07T09:24:56;35.50;;;17.45;;
49029;SDS011;43337;52.070;4.508;2024-03-07T09:27:22;35.53;;;16.30;;
49029;SDS011;43337;52.070;4.508;2024-03-07T09:29:47;36.10;;;16.05;;
49029;SDS011;43337;52.070;4.508;2024-03-07T09:32:13;33.58;;;14.40;;
49029;SDS011;43337;52.070;4.508;2024-03-07T09:34:39;37.70;;;15.55;;
49029;SDS011;43337;52.070;4.508;2024-03-07T09:37:04;42.10;;;15.98;;
49029;SDS011;43337;52.070;4.508;2024-03-07T09:39:32;31.40;;;14.75;;
49029;SDS011;43337;52.070;4.508;2024-03-07T09:42:00;32.75;;;15.10;;
49029;SDS011;43337;52.070;4.508;2024-03-07T09:44:28;31.17;;;13.68;;
49029;SDS011;43337;52.070;4.508;2024-03-07T09:46:54;32.92;;;14.70;;
49029;SDS011;43337;52.070;4.508;2024-03-07T09:49:21;30.58;;;15.15;;
49029;SDS011;43337;52.070;4.508;2024-03-07T09:51:47;31.80;;;14.45;;
49029;SDS011;43337;52.070;4.508;2024-03-07T09:54:19;30.23;;;14.10;;
49029;SDS011;43337;52.070;4.508;2024-03-07T09:56:45;31.08;;;13.25;;
49029;SDS011;43337;52.070;4.508;2024-03-07T09:59:12;29.85;;;13.55;;
49029;SDS011;43337;52.070;4.508;2024-03-07T10:01:38;30.83;;;14.05;;
49029;SDS011;43337;52.070;4.508;2024-03-07T10:04:07;28.55;;;12.98;;
49029;SDS011;43337;52.070;4.508;2024-03-07T10:06:37;29.17;;;13.15;;
49029;SDS011;43337;52.070;4.508;2024-03-07T10:09:06;25.67;;;13.23;;
49029;SDS011;43337;52.070;4.508;2024-03-07T10:11:32;23.77;;;12.68;;
49029;SDS011;43337;52.070;4.508;2024-03-07T10:14:00;24.83;;;12.40;;
49029;SDS011;43337;52.070;4.508;2024-03-07T10:16:28;27.52;;;12.90;;
49029;SDS011;43337;52.070;4.508;2024-03-07T10:18:53;30.40;;;13.13;;
49029;SDS011;43337;52.070;4.508;2024-03-07T10:21:22;25.15;;;11.80;;
49029;SDS011;43337;52.070;4.508;2024-03-07T10:23:49;25.17;;;12.02;;
49029;SDS011;43337;52.070;4.508;2024-03-07T10:26:15;27.40;;;12.00;;
49029;SDS011;43337;52.070;4.508;2024-03-07T10:28:40;24.58;;;11.80;;
49029;SDS011;43337;52.070;4.508;2024-03-07T10:31:06;24.80;;;12.15;;
49029;SDS011;43337;52.070;4.508;2024-03-07T10:33:36;23.83;;;11.02;;
49029;SDS011;43337;52.070;4.508;2024-03-07T10:36:05;23.00;;;11.55;;
49029;SDS011;43337;52.070;4.508;2024-03-07T10:38:35;23.67;;;11.57;;
49029;SDS011;43337;52.070;4.508;2024-03-07T10:41:03;25.15;;;12.55;;
49029;SDS011;43337;52.070;4.508;2024-03-07T10:43:33;24.17;;;12.07;;
49029;SDS011;43337;52.070;4.508;2024-03-07T10:46:05;24.55;;;11.77;;
49029;SDS011;43337;52.070;4.508;2024-03-07T10:48:39;21.95;;;11.20;;
49029;SDS011;43337;52.070;4.508;2024-03-07T10:51:21;23.85;;;11.05;;
49029;SDS011;43337;52.070;4.508;2024-03-07T10:59:16;27.05;;;11.32;;
49029;SDS011;43337;52.070;4.508;2024-03-07T11:01:57;21.55;;;10.65;;
49029;SDS011;43337;52.070;4.508;2024-03-07T11:04:25;23.80;;;11.32;;
49029;SDS011;43337;52.070;4.508;2024-03-07T11:06:50;18.88;;;9.90;;
49029;SDS011;43337;52.070;4.508;2024-03-07T11:09:15;17.45;;;8.30;;
49029;SDS011;43337;52.070;4.508;2024-03-07T11:11:48;21.58;;;10.13;;
49029;SDS011;43337;52.070;4.508;2024-03-07T11:14:14;19.88;;;9.25;;
49029;SDS011;43337;52.070;4.508;2024-03-07T11:16:41;17.38;;;9.55;;
49029;SDS011;43337;52.070;4.508;2024-03-07T11:21:49;19.88;;;10.15;;
49029;SDS011;43337;52.070;4.508;2024-03-07T11:24:25;20.73;;;10.43;;
49029;SDS011;43337;52.070;4.508;2024-03-07T11:26:53;20.92;;;10.45;;
49029;SDS011;43337;52.070;4.508;2024-03-07T11:32:09;22.45;;;10.55;;
49029;SDS011;43337;52.070;4.508;2024-03-07T11:34:47;23.10;;;10.80;;
49029;SDS011;43337;52.070;4.508;2024-03-07T11:37:18;21.92;;;10.90;;
49029;SDS011;43337;52.070;4.508;2024-03-07T11:39:48;22.42;;;10.93;;
49029;SDS011;43337;52.070;4.508;2024-03-07T11:44:56;20.92;;;10.45;;
49029;SDS011;43337;52.070;4.508;2024-03-07T11:47:23;27.33;;;10.45;;
49029;SDS011;43337;52.070;4.508;2024-03-07T11:50:00;21.17;;;10.55;;
49029;SDS011;43337;52.070;4.508;2024-03-07T11:52:27;21.45;;;10.93;;
49029;SDS011;43337;52.070;4.508;2024-03-07T11:54:52;19.65;;;10.48;;
49029;SDS011;43337;52.070;4.508;2024-03-07T11:57:19;20.30;;;9.05;;
49029;SDS011;43337;52.070;4.508;2024-03-07T11:59:44;23.08;;;11.10;;
49029;SDS011;43337;52.070;4.508;2024-03-07T12:02:17;19.88;;;10.20;;
49029;SDS011;43337;52.070;4.508;2024-03-07T12:04:43;17.90;;;9.77;;
49029;SDS011;43337;52.070;4.508;2024-03-07T12:07:08;18.02;;;8.85;;
49029;SDS011;43337;52.070;4.508;2024-03-07T12:09:38;19.10;;;8.95;;
49029;SDS011;43337;52.070;4.508;2024-03-07T12:12:07;18.50;;;9.60;;
49029;SDS011;43337;52.070;4.508;2024-03-07T12:14:34;20.58;;;10.75;;
49029;SDS011;43337;52.070;4.508;2024-03-07T12:17:02;18.48;;;9.50;;
49029;SDS011;43337;52.070;4.508;2024-03-07T12:19:32;19.95;;;9.25;;
49029;SDS011;43337;52.070;4.508;2024-03-07T12:22:01;20.40;;;9.88;;
49029;SDS011;43337;52.070;4.508;2024-03-07T12:24:29;20.77;;;10.35;;
49029;SDS011;43337;52.070;4.508;2024-03-07T12:27:14;20.60;;;10.40;;
49029;SDS011;43337;52.070;4.508;2024-03-07T12:29:41;18.45;;;9.38;;
49029;SDS011;43337;52.070;4.508;2024-03-07T12:32:13;17.08;;;8.95;;
49029;SDS011;43337;52.070;4.508;2024-03-07T12:34:39;13.95;;;7.35;;
49029;SDS011;43337;52.070;4.508;2024-03-07T12:37:10;22.23;;;8.40;;
49029;SDS011;43337;52.070;4.508;2024-03-07T12:39:41;15.57;;;8.02;;
49029;SDS011;43337;52.070;4.508;2024-03-07T12:42:14;18.60;;;8.70;;
49029;SDS011;43337;52.070;4.508;2024-03-07T12:44:42;17.73;;;8.35;;
49029;SDS011;43337;52.070;4.508;2024-03-07T12:47:10;19.50;;;8.65;;
49029;SDS011;43337;52.070;4.508;2024-03-07T12:49:39;21.40;;;9.88;;
49029;SDS011;43337;52.070;4.508;2024-03-07T12:52:05;16.98;;;8.02;;
49029;SDS011;43337;52.070;4.508;2024-03-07T12:54:33;22.42;;;9.82;;
49029;SDS011;43337;52.070;4.508;2024-03-07T12:57:03;21.23;;;9.50;;
49029;SDS011;43337;52.070;4.508;2024-03-07T12:59:30;23.15;;;10.00;;
49029;SDS011;43337;52.070;4.508;2024-03-07T13:01:56;21.75;;;10.13;;
49029;SDS011;43337;52.070;4.508;2024-03-07T13:04:22;24.63;;;10.88;;
49029;SDS011;43337;52.070;4.508;2024-03-07T13:06:47;19.77;;;9.43;;
49029;SDS011;43337;52.070;4.508;2024-03-07T13:09:12;22.02;;;9.80;;
49029;SDS011;43337;52.070;4.508;2024-03-07T13:11:38;21.95;;;10.35;;
49029;SDS011;43337;52.070;4.508;2024-03-07T13:14:07;20.15;;;10.70;;
49029;SDS011;43337;52.070;4.508;2024-03-07T13:16:33;20.55;;;10.25;;
49029;SDS011;43337;52.070;4.508;2024-03-07T13:18:59;20.48;;;10.95;;
49029;SDS011;43337;52.070;4.508;2024-03-07T13:21:25;18.67;;;9.98;;
49029;SDS011;43337;52.070;4.508;2024-03-07T13:23:52;23.52;;;10.93;;
49029;SDS011;43337;52.070;4.508;2024-03-07T13:26:22;24.20;;;10.57;;
49029;SDS011;43337;52.070;4.508;2024-03-07T13:28:53;22.05;;;10.55;;
49029;SDS011;43337;52.070;4.508;2024-03-07T13:31:19;27.33;;;10.40;;
49029;SDS011;43337;52.070;4.508;2024-03-07T13:33:45;24.98;;;11.90;;
49029;SDS011;43337;52.070;4.508;2024-03-07T13:36:11;22.05;;;11.07;;
49029;SDS011;43337;52.070;4.508;2024-03-07T13:38:36;21.88;;;11.30;;
49029;SDS011;43337;52.070;4.508;2024-03-07T13:41:03;19.38;;;10.07;;
49029;SDS011;43337;52.070;4.508;2024-03-07T13:43:32;21.90;;;9.27;;
49029;SDS011;43337;52.070;4.508;2024-03-07T13:46:00;21.08;;;10.10;;
49029;SDS011;43337;52.070;4.508;2024-03-07T13:48:25;19.40;;;10.65;;
49029;SDS011;43337;52.070;4.508;2024-03-07T13:50:51;22.10;;;8.95;;
49029;SDS011;43337;52.070;4.508;2024-03-07T13:53:19;21.13;;;10.38;;
49029;SDS011;43337;52.070;4.508;2024-03-07T14:18:17;19.38;;;9.38;;
49029;SDS011;43337;52.070;4.508;2024-03-07T14:29:26;17.20;;;6.93;;
49029;SDS011;43337;52.070;4.508;2024-03-07T14:31:56;16.83;;;7.82;;
49029;SDS011;43337;52.070;4.508;2024-03-07T14:37:27;15.68;;;8.27;;
49029;SDS011;43337;52.070;4.508;2024-03-07T14:40:05;18.85;;;8.13;;
49029;SDS011;43337;52.070;4.508;2024-03-07T14:42:35;19.27;;;8.30;;
49029;SDS011;43337;52.070;4.508;2024-03-07T14:45:06;14.63;;;6.65;;
49029;SDS011;43337;52.070;4.508;2024-03-07T14:47:34;21.23;;;8.77;;
49029;SDS011;43337;52.070;4.508;2024-03-07T14:50:00;17.48;;;8.50;;
49029;SDS011;43337;52.070;4.508;2024-03-07T14:52:26;23.15;;;10.25;;
49029;SDS011;43337;52.070;4.508;2024-03-07T14:54:53;20.95;;;8.70;;
49029;SDS011;43337;52.070;4.508;2024-03-07T14:57:19;16.95;;;8.10;;
49029;SDS011;43337;52.070;4.508;2024-03-07T14:59:44;16.52;;;8.48;;
49029;SDS011;43337;52.070;4.508;2024-03-07T15:02:11;16.83;;;8.38;;
49029;SDS011;43337;52.070;4.508;2024-03-07T15:04:39;16.55;;;8.52;;
49029;SDS011;43337;52.070;4.508;2024-03-07T15:07:06;19.35;;;8.57;;
49029;SDS011;43337;52.070;4.508;2024-03-07T15:09:34;15.63;;;8.45;;
49029;SDS011;43337;52.070;4.508;2024-03-07T15:12:00;22.88;;;9.15;;